• Join FlightAware (Why Join?)
  • Login
  • US Flag 
01:56AM EDT


 

Airport Tracker/Info


-or-


 

Live Flight TrackerFlight Track Log ✈ N100WX ✈ 17-Apr-2013 ✈ KBKL - KBED

Flight Track Log - Related Links

Times and Time Zones

All times are in EDT time to prevent confusion due to time zone crossing. See the N100WX flight status page for this flight to view local times or setup timezone preferences in your user account.

Time Position Orientation Groundspeed Altitude Reporting Facility
EDT Latitude Longitude Course Direction KTS MPH feet Rate Location/Type
05:48PM 41.5275 -81.6675 26° Northeast 146 168 1,300  Level Cleveland Center
05:49PM 41.5819 -81.6325 26° Northeast 227 261 3,600 2,160 Climbing Cleveland Center
05:50PM 41.6219 -81.5997 31° Northeast 244 281 5,400 2,460 Climbing Cleveland Center
05:51PM 41.6828 -81.5506 31° Northeast 250 288 8,000 2,460 Climbing Cleveland Center
05:52PM 41.7436 -81.5014 31° Northeast 255 293 10,400 2,160 Climbing Cleveland Center
05:53PM 41.8044 -81.4467 34° Northeast 261 300 12,400 1,800 Climbing Cleveland Center
05:54PM 41.8469 -81.3608 56° Northeast 261 300 14,100 1,860 Climbing Cleveland Center
05:55PM 41.8619 -81.2661 78° East 268 308 16,200 1,860 Climbing Cleveland Center
05:56PM 41.8794 -81.1575 78° East 285 328 17,900 1,800 Climbing Cleveland Center
05:57PM 41.8986 -81.0461 77° East 304 350 19,900 2,040 Climbing Cleveland Center
05:58PM 41.9178 -80.9264 78° East 315 362 22,000 1,980 Climbing Cleveland Center
05:59PM 41.9369 -80.8092 78° East 321 369 23,900 1,860 Climbing Cleveland Center
06:00PM 41.9558 -80.6808 79° East 321 369 25,800 1,440 Climbing Cleveland Center
06:01PM 41.9703 -80.5497 82° East 328 377 26,800 1,500 Climbing Cleveland Center
06:02PM 41.9600 -80.4239 96° East 329 379 28,800 1,080 Climbing Cleveland Center
06:03PM 41.9472 -80.2900 97° East 344 396 29,000 60 Climbing Cleveland Center
06:04PM 41.9319 -80.1422 98° East 383 441 29,000  Level Cleveland Center
06:05PM 41.9397 -79.9858 86° East 404 465 29,000  Level Cleveland Center
06:06PM 41.9658 -79.8292 77° East 417 480 29,000  Level Cleveland Center
06:07PM 41.9897 -79.6697 79° East 427 491 29,000  Level Cleveland Center
06:08PM 42.0153 -79.5072 78° East 427 491 29,000  Level Cleveland Center
06:09PM 42.0389 -79.3503 78° East 432 497 29,000  Level Cleveland Center
06:10PM 42.0642 -79.1875 78° East 432 497 29,000  Level Cleveland Center
06:11PM 42.0872 -79.0303 79° East 432 497 29,000  Level Cleveland Center
06:12PM 42.1119 -78.8675 78° East 432 497 29,000  Level Cleveland Center
06:13PM 42.1364 -78.7072 78° East 432 497 29,000  Level Cleveland Center
06:14PM 42.1586 -78.5411 80° East 432 497 29,000  Level Cleveland Center
06:15PM 42.1831 -78.4003 77° East 432 497 29,000  Level Cleveland Center
06:16PM 42.2050 -78.2369 80° East 432 497 29,000  Level Cleveland Center
06:17PM 42.2286 -78.0761 79° East 432 497 29,100  Climbing Cleveland Center
06:18PM 42.2522 -77.9125 79° East 432 497 29,000 -60 Descending Cleveland Center
06:19PM 42.2769 -77.7347 79° East 432 497 29,000  Level Cleveland Center
06:20PM 42.3000 -77.5736 79° East 432 497 29,000  Level Cleveland Center
06:21PM 42.3206 -77.4097 80° East 432 497 29,000  Level Cleveland Center
06:22PM 42.3433 -77.2511 79° East 432 497 29,000  Level Cleveland Center
06:24PM 42.3936 -76.8600 80° East 452 520 29,000  Level Boston Center
06:25PM 42.4142 -76.7011 80° East 441 507 29,000  Level Boston Center
06:26PM 42.4350 -76.5336 80° East 441 507 29,000  Level Boston Center
06:27PM 42.4572 -76.3719 79° East 441 507 29,000  Level Boston Center
06:28PM 42.4775 -76.2097 80° East 441 507 29,000  Level Boston Center
06:29PM 42.4975 -76.0419 81° East 441 507 29,000  Level Boston Center
06:30PM 42.5150 -75.8769 82° East 441 507 29,000  Level Boston Center
06:31PM 42.5367 -75.7117 80° East 441 507 29,000  Level Boston Center
06:32PM 42.5558 -75.5464 81° East 441 507 29,000  Level Boston Center
06:33PM 42.5769 -75.3811 80° East 441 507 29,000  Level Boston Center
06:34PM 42.5908 -75.2464 82° East 446 513 29,000  Level Boston Center
06:35PM 42.6122 -75.0442 82° East 446 513 29,000  Level Boston Center
06:36PM 42.6328 -74.8783 80° East 446 513 29,000  Level Boston Center
06:37PM 42.6536 -74.6761 82° East 446 513 29,000  Level Boston Center
06:38PM 42.6711 -74.5242 81° East 453 521 29,000  Level Boston Center
06:39PM 42.6886 -74.3553 82° East 448 516 29,000  Level Boston Center
06:40PM 42.7058 -74.1889 82° East 443 510 29,000  Level Boston Center
06:41PM 42.7208 -74.0197 83° East 443 510 29,000  Level Boston Center
06:42PM 42.7086 -73.8444 95° East 443 510 29,000  Level Boston Center
06:43PM 42.6958 -73.6744 96° East 443 510 29,000 -900 Level Boston Center
06:44PM 42.6831 -73.5078 96° East 443 510 27,300 -1,740 Descending Boston Center
06:45PM 42.6697 -73.3464 96° East 438 504 25,500 -1,860 Descending Boston Center
06:46PM 42.6544 -73.1769 97° East 425 489 23,600 -1,920 Descending Boston Center
06:47PM 42.6406 -73.0272 97° East 409 471 21,800 -1,860 Descending Boston Center
06:48PM 42.6289 -72.8747 96° East 402 463 20,000 -1,680 Descending Boston Center
06:49PM 42.6147 -72.7447 98° East 384 442 18,400 -1,500 Descending Boston Center
06:50PM 42.6025 -72.6008 97° East 374 430 17,000 -1,500 Descending Boston Center
06:51PM 42.5881 -72.4569 98° East 374 430 15,400 -1,620 Descending Boston Center
06:52PM 42.5753 -72.3189 97° East 369 425 13,800 -1,680 Descending Boston Center
06:53PM 42.5689 -72.2006 94° East 337 388 12,100 -1,680 Descending Boston Center
06:54PM 42.5750 -72.0989 85° East 299 344 10,500 -1,800 Descending Boston Center
06:55PM 42.5661 -71.9833 96° East 287 330 8,600 -1,800 Descending Boston Center
06:56PM 42.5575 -71.8875 97° East 287 330 6,900 -1,800 Descending Boston Center
06:57PM 42.5547 -71.7806 92° East 267 307 5,000 -1,260 Descending Boston Center
06:59PM 42.5542 -71.6706 90° East 249 287 4,000 -420 Descending Boston Center
07:00PM 42.5500 -71.5667 93° East 212 244 4,000 -300 Level KA90
07:01PM 42.5500 -71.4833 90° East 213 245 3,400 -900 Descending KA90
07:02PM 42.5333 -71.4167 109° East 205 236 2,400 -900 Descending KA90
07:03PM 42.5167 -71.3500 109° East 190 219 1,700 -360 Descending KA90
07:04PM 42.5000 -71.2833 109° East 168 193 1,700 -240 Level KA90
07:05PM 42.4833 -71.2333 114° Southeast 150 173 1,300 -540 Descending KA90
07:06PM 42.4667 -71.2500 216° Southwest 131 151 700 -720 Descending KA90
07:11PM 42.4667 -71.2833 324° Northwest  Level FlightAware Approximate
07:18PM 42.4699 -71.2890 324° Northwest  Level Estimated
07:19PM 42.4667 -71.2833 324° Northwest  Level FlightAware Approximate
07:20PM 42.4699 -71.2890 324° Northwest  Level Estimated